HYS482 LROP-LUKK
Flight info
| Callsign | HYS482 |
|---|---|
| Flight time | 0h 34m |
| Altitude | 31000 |
| Route | DENAK1K/08L DENAK DCT URELA DCT FOCSA DCT KENUX DCT BCU DCT BUSES |
| Aircraft | A320/M-SDE3FGHIRWY/LB1 |
Departure
| Time | 2026-05-09 18:20 |
|---|---|
| Airport | Bucharest Henri Coandă International Airport (LROP) |
Arrival
| Time | 2026-05-09 18:54 |
|---|---|
| Airport | Chişinău International Airport (LUKK) |
| Time | Latitude | Longitude | Altitude | Speed | Heading |
|---|---|---|---|---|---|
| 2026-05-09 17:39 | 44.56895 | 26.08238 | 316 ft | 0 kts | 354° |
| 2026-05-09 18:16 | 44.56897 | 26.08238 | 315 ft | 1 kts | 354° |
| 2026-05-09 18:16 | 44.56927 | 26.08234 | 317 ft | 7 kts | 355° |
| 2026-05-09 18:17 | 44.56951 | 26.08302 | 316 ft | 11 kts | 86° |
| 2026-05-09 18:17 | 44.56999 | 26.08388 | 316 ft | 14 kts | 3° |
| 2026-05-09 18:17 | 44.57112 | 26.08377 | 315 ft | 19 kts | 355° |
| 2026-05-09 18:17 | 44.57224 | 26.08391 | 315 ft | 13 kts | 52° |
| 2026-05-09 18:18 | 44.57254 | 26.08498 | 318 ft | 9 kts | 36° |
| 2026-05-09 18:18 | 44.57321 | 26.08491 | 320 ft | 11 kts | 353° |
| 2026-05-09 18:18 | 44.57409 | 26.08477 | 321 ft | 14 kts | 354° |
| 2026-05-09 18:18 | 44.57518 | 26.08461 | 325 ft | 17 kts | 354° |
| 2026-05-09 18:19 | 44.57632 | 26.08449 | 328 ft | 16 kts | 4° |
| 2026-05-09 18:19 | 44.57704 | 26.08963 | 320 ft | 76 kts | 84° |
| 2026-05-09 18:19 | 44.57780 | 26.09988 | 322 ft | 132 kts | 84° |
| 2026-05-09 18:20 | 44.57884 | 26.11458 | 450 ft | 163 kts | 84° |
| 2026-05-09 18:20 | 44.57997 | 26.13066 | 1028 ft | 168 kts | 85° |
| 2026-05-09 18:20 | 44.58112 | 26.14689 | 1713 ft | 167 kts | 84° |
| 2026-05-09 18:20 | 44.58241 | 26.16349 | 2265 ft | 175 kts | 84° |
| 2026-05-09 18:21 | 44.58379 | 26.18128 | 2536 ft | 197 kts | 84° |
| 2026-05-09 18:21 | 44.58534 | 26.20148 | 2815 ft | 219 kts | 84° |
| 2026-05-09 18:21 | 44.58706 | 26.22364 | 3162 ft | 241 kts | 84° |
| 2026-05-09 18:21 | 44.58891 | 26.24811 | 3667 ft | 261 kts | 84° |
| 2026-05-09 18:22 | 44.59082 | 26.27374 | 4524 ft | 267 kts | 84° |
| 2026-05-09 18:22 | 44.59408 | 26.29950 | 5413 ft | 271 kts | 69° |
| 2026-05-09 18:22 | 44.60413 | 26.32183 | 6280 ft | 275 kts | 44° |
| 2026-05-09 18:22 | 44.62005 | 26.33688 | 7153 ft | 278 kts | 27° |
| 2026-05-09 18:23 | 44.63729 | 26.34952 | 8030 ft | 281 kts | 27° |
| 2026-05-09 18:23 | 44.65472 | 26.36221 | 8870 ft | 284 kts | 27° |
| 2026-05-09 18:23 | 44.67241 | 26.37508 | 9689 ft | 288 kts | 27° |
| 2026-05-09 18:23 | 44.69036 | 26.38818 | 10341 ft | 299 kts | 27° |
| 2026-05-09 18:24 | 44.70951 | 26.40217 | 10590 ft | 322 kts | 27° |
| 2026-05-09 18:24 | 44.73006 | 26.41726 | 10826 ft | 343 kts | 27° |
| 2026-05-09 18:24 | 44.75147 | 26.43304 | 11384 ft | 350 kts | 27° |
| 2026-05-09 18:25 | 44.79513 | 26.46532 | 12707 ft | 358 kts | 27° |
| 2026-05-09 18:25 | 44.81729 | 26.48168 | 13367 ft | 362 kts | 27° |
| 2026-05-09 18:25 | 44.83972 | 26.49824 | 14025 ft | 365 kts | 27° |
| 2026-05-09 18:25 | 44.86204 | 26.51475 | 14657 ft | 369 kts | 27° |
| 2026-05-09 18:26 | 44.88487 | 26.53162 | 15253 ft | 372 kts | 27° |
| 2026-05-09 18:26 | 44.90787 | 26.54860 | 15835 ft | 375 kts | 27° |
| 2026-05-09 18:26 | 44.93115 | 26.56583 | 16403 ft | 379 kts | 27° |
| 2026-05-09 18:26 | 44.95457 | 26.58320 | 16969 ft | 382 kts | 27° |
| 2026-05-09 18:27 | 44.97823 | 26.60077 | 17541 ft | 385 kts | 27° |
| 2026-05-09 18:27 | 44.99396 | 26.61245 | 17908 ft | 387 kts | 27° |
| 2026-05-09 18:27 | 45.02602 | 26.63625 | 18651 ft | 391 kts | 27° |
| 2026-05-09 18:27 | 45.05024 | 26.65427 | 19198 ft | 395 kts | 27° |
| 2026-05-09 18:28 | 45.07460 | 26.67240 | 19735 ft | 398 kts | 27° |
| 2026-05-09 18:28 | 45.09921 | 26.69074 | 20278 ft | 401 kts | 27° |
| 2026-05-09 18:28 | 45.12397 | 26.70921 | 20789 ft | 404 kts | 27° |
| 2026-05-09 18:28 | 45.14895 | 26.72786 | 21271 ft | 407 kts | 27° |
| 2026-05-09 18:29 | 45.17411 | 26.74664 | 21734 ft | 410 kts | 27° |
| 2026-05-09 18:29 | 45.19941 | 26.76555 | 22176 ft | 413 kts | 27° |
| 2026-05-09 18:29 | 45.22487 | 26.78465 | 22614 ft | 416 kts | 27° |
| 2026-05-09 18:29 | 45.25051 | 26.80394 | 23046 ft | 419 kts | 27° |
| 2026-05-09 18:30 | 45.27630 | 26.82335 | 23466 ft | 422 kts | 27° |
| 2026-05-09 18:30 | 45.30229 | 26.84297 | 23877 ft | 424 kts | 28° |
| 2026-05-09 18:30 | 45.32851 | 26.86280 | 24285 ft | 427 kts | 28° |
| 2026-05-09 18:30 | 45.35481 | 26.88267 | 24688 ft | 430 kts | 27° |
| 2026-05-09 18:31 | 45.38092 | 26.90235 | 25067 ft | 432 kts | 27° |
| 2026-05-09 18:31 | 45.40760 | 26.92243 | 25424 ft | 435 kts | 27° |
| 2026-05-09 18:31 | 45.41667 | 26.92926 | 25556 ft | 436 kts | 27° |
| 2026-05-09 18:31 | 45.42253 | 26.93367 | 25617 ft | 437 kts | 27° |
| 2026-05-09 18:32 | 45.44298 | 26.94908 | 24825 ft | 463 kts | 27° |
| 2026-05-09 18:32 | 45.46261 | 26.96390 | 24303 ft | 482 kts | 27° |
| 2026-05-09 18:32 | 45.49208 | 26.98619 | 25137 ft | 454 kts | 28° |
| 2026-05-09 18:32 | 45.51928 | 27.00684 | 26815 ft | 440 kts | 28° |
| 2026-05-09 18:33 | 45.54566 | 27.02691 | 28028 ft | 418 kts | 28° |
| 2026-05-09 18:33 | 45.57086 | 27.04609 | 29045 ft | 405 kts | 28° |
| 2026-05-09 18:33 | 45.59554 | 27.06486 | 29708 ft | 400 kts | 28° |
| 2026-05-09 18:33 | 45.62009 | 27.08354 | 30140 ft | 400 kts | 28° |
| 2026-05-09 18:34 | 45.64483 | 27.10238 | 30428 ft | 405 kts | 28° |
| 2026-05-09 18:34 | 45.66986 | 27.12145 | 30618 ft | 411 kts | 28° |
| 2026-05-09 18:34 | 45.69527 | 27.14086 | 30851 ft | 417 kts | 28° |
| 2026-05-09 18:34 | 45.72106 | 27.16064 | 30984 ft | 425 kts | 28° |
| 2026-05-09 18:35 | 45.74740 | 27.18087 | 31012 ft | 435 kts | 28° |
| 2026-05-09 18:35 | 45.80196 | 27.22267 | 31010 ft | 452 kts | 28° |
| 2026-05-09 18:36 | 45.85762 | 27.26545 | 31009 ft | 455 kts | 28° |
| 2026-05-09 18:36 | 45.91307 | 27.30812 | 31009 ft | 456 kts | 28° |
| 2026-05-09 18:37 | 45.96894 | 27.35124 | 31009 ft | 456 kts | 28° |
| 2026-05-09 18:37 | 46.02491 | 27.39458 | 31010 ft | 456 kts | 28° |
| 2026-05-09 18:38 | 46.08076 | 27.43791 | 31007 ft | 456 kts | 28° |
| 2026-05-09 18:38 | 46.13659 | 27.48135 | 30917 ft | 456 kts | 28° |
| 2026-05-09 18:40 | 46.32312 | 27.62703 | 29253 ft | 459 kts | 28° |
| 2026-05-09 18:40 | 46.35123 | 27.64905 | 29008 ft | 460 kts | 28° |
| 2026-05-09 18:40 | 46.37939 | 27.67115 | 28754 ft | 460 kts | 28° |
| 2026-05-09 18:41 | 46.40748 | 27.69327 | 28502 ft | 461 kts | 28° |
| 2026-05-09 18:41 | 46.44481 | 27.72275 | 28173 ft | 461 kts | 28° |
| 2026-05-09 18:41 | 46.46387 | 27.73781 | 28003 ft | 462 kts | 28° |
| 2026-05-09 18:41 | 46.49212 | 27.76012 | 27753 ft | 462 kts | 28° |
| 2026-05-09 18:42 | 46.52037 | 27.78244 | 27502 ft | 462 kts | 28° |
| 2026-05-09 18:42 | 46.54850 | 27.80469 | 27252 ft | 460 kts | 28° |
| 2026-05-09 18:42 | 46.57659 | 27.82693 | 27001 ft | 459 kts | 28° |
| 2026-05-09 18:42 | 46.60453 | 27.84912 | 26751 ft | 457 kts | 28° |
| 2026-05-09 18:43 | 46.63231 | 27.87126 | 26501 ft | 455 kts | 28° |
| 2026-05-09 18:43 | 46.66008 | 27.89338 | 26250 ft | 453 kts | 28° |
| 2026-05-09 18:43 | 46.68614 | 27.91784 | 25998 ft | 451 kts | 40° |
| 2026-05-09 18:43 | 46.70735 | 27.95114 | 25739 ft | 449 kts | 56° |
| 2026-05-09 18:44 | 46.72218 | 27.99095 | 25494 ft | 448 kts | 65° |
| 2026-05-09 18:44 | 46.73529 | 28.03199 | 25237 ft | 439 kts | 65° |
| 2026-05-09 18:44 | 46.74775 | 28.07108 | 24873 ft | 412 kts | 65° |
| 2026-05-09 18:44 | 46.75955 | 28.10813 | 22549 ft | 414 kts | 65° |
| 2026-05-09 18:45 | 46.77188 | 28.14674 | 19723 ft | 423 kts | 65° |
| 2026-05-09 18:45 | 46.78456 | 28.18636 | 17118 ft | 432 kts | 65° |
| 2026-05-09 18:45 | 46.79673 | 28.22470 | 14963 ft | 409 kts | 65° |
| 2026-05-09 18:45 | 46.80879 | 28.26284 | 12459 ft | 410 kts | 65° |
| 2026-05-09 18:46 | 46.82059 | 28.30009 | 10884 ft | 391 kts | 65° |
| 2026-05-09 18:46 | 46.83165 | 28.33470 | 9401 ft | 363 kts | 65° |
| 2026-05-09 18:46 | 46.84244 | 28.36844 | 6903 ft | 368 kts | 65° |
| 2026-05-09 18:46 | 46.85312 | 28.40244 | 5477 ft | 353 kts | 65° |
| 2026-05-09 18:47 | 46.86273 | 28.43344 | 5308 ft | 319 kts | 65° |
| 2026-05-09 18:47 | 46.87153 | 28.46181 | 5057 ft | 297 kts | 65° |
| 2026-05-09 18:47 | 46.87967 | 28.48796 | 4886 ft | 275 kts | 65° |
| 2026-05-09 18:47 | 46.88740 | 28.51279 | 4765 ft | 255 kts | 65° |
| 2026-05-09 18:48 | 46.89437 | 28.53522 | 4659 ft | 236 kts | 65° |
| 2026-05-09 18:48 | 46.90095 | 28.55627 | 4566 ft | 221 kts | 65° |
| 2026-05-09 18:48 | 46.90723 | 28.57633 | 4466 ft | 212 kts | 65° |
| 2026-05-09 18:48 | 46.91326 | 28.59563 | 4322 ft | 205 kts | 65° |
| 2026-05-09 18:49 | 46.91901 | 28.61443 | 4216 ft | 203 kts | 70° |
| 2026-05-09 18:49 | 46.92128 | 28.63477 | 4004 ft | 202 kts | 87° |
| 2026-05-09 18:49 | 46.92182 | 28.65527 | 3742 ft | 201 kts | 88° |
| 2026-05-09 18:49 | 46.92225 | 28.67515 | 3512 ft | 193 kts | 88° |
| 2026-05-09 18:50 | 46.92268 | 28.69450 | 3235 ft | 183 kts | 88° |
| 2026-05-09 18:50 | 46.92307 | 28.71216 | 3029 ft | 163 kts | 88° |
| 2026-05-09 18:50 | 46.92342 | 28.72788 | 2799 ft | 149 kts | 88° |
| 2026-05-09 18:50 | 46.92375 | 28.74268 | 2605 ft | 143 kts | 88° |
| 2026-05-09 18:51 | 46.92408 | 28.75714 | 2419 ft | 141 kts | 88° |
| 2026-05-09 18:51 | 46.92439 | 28.77142 | 2233 ft | 140 kts | 88° |
| 2026-05-09 18:51 | 46.92470 | 28.78567 | 2048 ft | 140 kts | 88° |
| 2026-05-09 18:51 | 46.92501 | 28.79986 | 1863 ft | 139 kts | 88° |
| 2026-05-09 18:52 | 46.92532 | 28.81399 | 1679 ft | 139 kts | 88° |
| 2026-05-09 18:52 | 46.92562 | 28.82809 | 1481 ft | 139 kts | 88° |
| 2026-05-09 18:52 | 46.92593 | 28.84217 | 1312 ft | 138 kts | 88° |
| 2026-05-09 18:52 | 46.92623 | 28.85620 | 1119 ft | 138 kts | 88° |
| 2026-05-09 18:53 | 46.92652 | 28.87018 | 947 ft | 137 kts | 88° |
| 2026-05-09 18:53 | 46.92678 | 28.88411 | 723 ft | 137 kts | 88° |
| 2026-05-09 18:53 | 46.92711 | 28.89797 | 560 ft | 135 kts | 88° |
| 2026-05-09 18:53 | 46.92739 | 28.91184 | 411 ft | 134 kts | 89° |
| 2026-05-09 18:54 | 46.92764 | 28.92358 | 409 ft | 97 kts | 88° |
| 2026-05-09 18:54 | 46.92778 | 28.93028 | 409 ft | 48 kts | 88° |
| 2026-05-09 18:54 | 46.92801 | 28.93397 | 406 ft | 19 kts | 47° |
| 2026-05-09 18:54 | 46.92889 | 28.93413 | 409 ft | 10 kts | 359° |
| 2026-05-09 18:55 | 46.92954 | 28.93413 | 409 ft | 9 kts | 360° |
| 2026-05-09 18:55 | 46.93025 | 28.93419 | 409 ft | 11 kts | 8° |
| 2026-05-09 18:55 | 46.93108 | 28.93436 | 411 ft | 12 kts | 7° |
| 2026-05-09 18:55 | 46.93202 | 28.93452 | 409 ft | 16 kts | 7° |
| 2026-05-09 18:56 | 46.93325 | 28.93474 | 408 ft | 19 kts | 6° |
| 2026-05-09 18:56 | 46.93425 | 28.93464 | 408 ft | 7 kts | 296° |
| 2026-05-09 18:56 | 46.93456 | 28.93401 | 408 ft | 9 kts | 307° |
| 2026-05-09 18:56 | 46.93484 | 28.93314 | 408 ft | 7 kts | 276° |
| 2026-05-09 18:57 | 46.93484 | 28.93309 | 408 ft | 0 kts | 276° |
| 2026-05-09 18:57 | 46.93485 | 28.93294 | 408 ft | 3 kts | 269° |
| 2026-05-09 18:57 | 46.93490 | 28.93258 | 406 ft | 2 kts | 277° |
| 2026-05-09 18:57 | 46.93483 | 28.93257 | 408 ft | 1 kts | 188° |
| 2026-05-09 18:58 | 46.93480 | 28.93261 | 408 ft | 0 kts | 149° |
| 2026-05-09 18:58 | 46.93480 | 28.93266 | 408 ft | 0 kts | 117° |
| 2026-05-09 18:58 | 46.93482 | 28.93270 | 408 ft | 0 kts | 89° |
| 2026-05-09 18:58 | 46.93482 | 28.93285 | 408 ft | 3 kts | 89° |
| 2026-05-09 18:59 | 46.93481 | 28.93316 | 408 ft | 0 kts | 94° |
| 2026-05-09 18:59 | 46.93480 | 28.93329 | 408 ft | 2 kts | 94° |
| 2026-05-09 18:59 | 46.93480 | 28.93330 | 408 ft | 0 kts | 94° |